sensor_id;sensor_type;location;lat;lon;timestamp;P1;durP1;ratioP1;P2;durP2;ratioP2
71395;SDS011;59888;55.814;37.132;2023-08-07T00:00:08;5.30;;;3.30;;
71395;SDS011;59888;55.814;37.132;2023-08-07T00:02:35;6.22;;;3.40;;
71395;SDS011;59888;55.814;37.132;2023-08-07T00:05:01;5.45;;;3.42;;
71395;SDS011;59888;55.814;37.132;2023-08-07T00:07:30;5.13;;;3.38;;
71395;SDS011;59888;55.814;37.132;2023-08-07T00:09:56;6.57;;;3.70;;
71395;SDS011;59888;55.814;37.132;2023-08-07T00:12:22;4.78;;;3.20;;
71395;SDS011;59888;55.814;37.132;2023-08-07T00:14:52;5.30;;;3.40;;
71395;SDS011;59888;55.814;37.132;2023-08-07T00:17:18;4.60;;;3.30;;
71395;SDS011;59888;55.814;37.132;2023-08-07T00:19:44;6.20;;;3.90;;
71395;SDS011;59888;55.814;37.132;2023-08-07T00:22:10;4.55;;;3.20;;
71395;SDS011;59888;55.814;37.132;2023-08-07T00:24:36;5.05;;;3.33;;
71395;SDS011;59888;55.814;37.132;2023-08-07T00:27:02;7.72;;;3.17;;
71395;SDS011;59888;55.814;37.132;2023-08-07T00:29:29;6.50;;;3.38;;
71395;SDS011;59888;55.814;37.132;2023-08-07T00:31:55;7.43;;;3.30;;
71395;SDS011;59888;55.814;37.132;2023-08-07T00:34:21;4.75;;;3.50;;
71395;SDS011;59888;55.814;37.132;2023-08-07T00:36:46;7.15;;;3.40;;
71395;SDS011;59888;55.814;37.132;2023-08-07T00:39:13;6.18;;;3.58;;
71395;SDS011;59888;55.814;37.132;2023-08-07T00:41:39;7.95;;;3.38;;
71395;SDS011;59888;55.814;37.132;2023-08-07T00:44:05;5.35;;;3.55;;
71395;SDS011;59888;55.814;37.132;2023-08-07T00:46:33;7.18;;;3.40;;
71395;SDS011;59888;55.814;37.132;2023-08-07T00:49:00;5.30;;;3.90;;
71395;SDS011;59888;55.814;37.132;2023-08-07T00:51:26;4.40;;;3.65;;
71395;SDS011;59888;55.814;37.132;2023-08-07T00:53:53;5.35;;;3.50;;
71395;SDS011;59888;55.814;37.132;2023-08-07T00:56:19;9.00;;;3.63;;
71395;SDS011;59888;55.814;37.132;2023-08-07T00:58:45;8.50;;;3.47;;
71395;SDS011;59888;55.814;37.132;2023-08-07T01:01:11;6.45;;;3.70;;
71395;SDS011;59888;55.814;37.132;2023-08-07T01:03:37;7.82;;;3.63;;
71395;SDS011;59888;55.814;37.132;2023-08-07T01:06:04;6.88;;;3.53;;
71395;SDS011;59888;55.814;37.132;2023-08-07T01:08:30;6.10;;;3.67;;
71395;SDS011;59888;55.814;37.132;2023-08-07T01:13:33;4.93;;;3.60;;
71395;SDS011;59888;55.814;37.132;2023-08-07T01:16:04;6.97;;;3.40;;
71395;SDS011;59888;55.814;37.132;2023-08-07T01:18:37;6.93;;;3.83;;
71395;SDS011;59888;55.814;37.132;2023-08-07T01:21:04;7.35;;;3.10;;
71395;SDS011;59888;55.814;37.132;2023-08-07T01:23:30;6.15;;;3.20;;
71395;SDS011;59888;55.814;37.132;2023-08-07T01:25:56;5.32;;;3.70;;
71395;SDS011;59888;55.814;37.132;2023-08-07T01:28:33;8.13;;;3.40;;
71395;SDS011;59888;55.814;37.132;2023-08-07T01:31:08;5.10;;;3.63;;
71395;SDS011;59888;55.814;37.132;2023-08-07T01:33:39;8.30;;;3.95;;
71395;SDS011;59888;55.814;37.132;2023-08-07T01:36:18;6.03;;;3.67;;
71395;SDS011;59888;55.814;37.132;2023-08-07T01:38:46;6.47;;;3.25;;
71395;SDS011;59888;55.814;37.132;2023-08-07T01:41:14;6.65;;;3.70;;
71395;SDS011;59888;55.814;37.132;2023-08-07T01:43:40;8.57;;;3.85;;
71395;SDS011;59888;55.814;37.132;2023-08-07T01:46:06;7.97;;;4.32;;
71395;SDS011;59888;55.814;37.132;2023-08-07T01:48:32;9.13;;;3.85;;
71395;SDS011;59888;55.814;37.132;2023-08-07T01:50:58;7.30;;;3.88;;
71395;SDS011;59888;55.814;37.132;2023-08-07T01:53:24;5.78;;;3.50;;
71395;SDS011;59888;55.814;37.132;2023-08-07T01:55:50;6.68;;;3.72;;
71395;SDS011;59888;55.814;37.132;2023-08-07T01:58:16;5.75;;;3.60;;
71395;SDS011;59888;55.814;37.132;2023-08-07T02:00:42;4.85;;;3.90;;
71395;SDS011;59888;55.814;37.132;2023-08-07T02:03:08;6.15;;;3.78;;
71395;SDS011;59888;55.814;37.132;2023-08-07T02:05:34;5.82;;;3.90;;
71395;SDS011;59888;55.814;37.132;2023-08-07T02:08:01;6.75;;;4.07;;
71395;SDS011;59888;55.814;37.132;2023-08-07T02:10:27;6.75;;;3.53;;
71395;SDS011;59888;55.814;37.132;2023-08-07T02:12:53;7.65;;;3.33;;
71395;SDS011;59888;55.814;37.132;2023-08-07T02:15:19;6.28;;;3.85;;
71395;SDS011;59888;55.814;37.132;2023-08-07T02:17:50;5.97;;;3.78;;
71395;SDS011;59888;55.814;37.132;2023-08-07T02:20:17;8.40;;;3.47;;
71395;SDS011;59888;55.814;37.132;2023-08-07T02:22:43;7.63;;;4.00;;
71395;SDS011;59888;55.814;37.132;2023-08-07T02:25:13;6.82;;;4.07;;
71395;SDS011;59888;55.814;37.132;2023-08-07T02:27:39;5.90;;;3.55;;
71395;SDS011;59888;55.814;37.132;2023-08-07T02:30:05;4.43;;;3.58;;
71395;SDS011;59888;55.814;37.132;2023-08-07T02:32:32;8.63;;;3.97;;
71395;SDS011;59888;55.814;37.132;2023-08-07T02:34:58;6.78;;;4.07;;
71395;SDS011;59888;55.814;37.132;2023-08-07T02:37:24;5.78;;;4.00;;
71395;SDS011;59888;55.814;37.132;2023-08-07T02:39:50;6.07;;;3.67;;
71395;SDS011;59888;55.814;37.132;2023-08-07T02:42:16;8.73;;;3.78;;
71395;SDS011;59888;55.814;37.132;2023-08-07T02:44:42;5.13;;;3.67;;
71395;SDS011;59888;55.814;37.132;2023-08-07T02:47:10;7.95;;;4.35;;
71395;SDS011;59888;55.814;37.132;2023-08-07T02:49:37;6.82;;;3.45;;
71395;SDS011;59888;55.814;37.132;2023-08-07T02:52:03;7.25;;;3.35;;
71395;SDS011;59888;55.814;37.132;2023-08-07T02:54:29;9.43;;;3.97;;
71395;SDS011;59888;55.814;37.132;2023-08-07T02:56:58;6.75;;;3.55;;
71395;SDS011;59888;55.814;37.132;2023-08-07T02:59:24;7.57;;;3.97;;
71395;SDS011;59888;55.814;37.132;2023-08-07T03:01:50;8.52;;;4.28;;
71395;SDS011;59888;55.814;37.132;2023-08-07T03:04:16;5.63;;;3.42;;
71395;SDS011;59888;55.814;37.132;2023-08-07T03:06:42;5.88;;;3.47;;
71395;SDS011;59888;55.814;37.132;2023-08-07T03:09:08;6.05;;;3.40;;
71395;SDS011;59888;55.814;37.132;2023-08-07T03:11:34;8.25;;;3.63;;
71395;SDS011;59888;55.814;37.132;2023-08-07T03:14:00;7.25;;;3.65;;
71395;SDS011;59888;55.814;37.132;2023-08-07T03:16:26;6.75;;;3.67;;
71395;SDS011;59888;55.814;37.132;2023-08-07T03:18:52;6.72;;;3.55;;
71395;SDS011;59888;55.814;37.132;2023-08-07T03:21:18;5.85;;;3.58;;
71395;SDS011;59888;55.814;37.132;2023-08-07T03:23:44;4.50;;;3.53;;
71395;SDS011;59888;55.814;37.132;2023-08-07T03:26:13;4.65;;;3.13;;
71395;SDS011;59888;55.814;37.132;2023-08-07T03:28:39;6.07;;;3.47;;
71395;SDS011;59888;55.814;37.132;2023-08-07T03:31:05;6.75;;;3.50;;
71395;SDS011;59888;55.814;37.132;2023-08-07T03:33:34;7.57;;;3.70;;
71395;SDS011;59888;55.814;37.132;2023-08-07T03:36:01;5.20;;;3.30;;
71395;SDS011;59888;55.814;37.132;2023-08-07T03:38:28;7.28;;;3.45;;
71395;SDS011;59888;55.814;37.132;2023-08-07T03:40:55;5.40;;;3.58;;
71395;SDS011;59888;55.814;37.132;2023-08-07T03:43:21;6.50;;;3.42;;
71395;SDS011;59888;55.814;37.132;2023-08-07T03:45:53;6.18;;;3.33;;
71395;SDS011;59888;55.814;37.132;2023-08-07T03:48:21;5.40;;;3.55;;
71395;SDS011;59888;55.814;37.132;2023-08-07T03:50:50;9.07;;;3.80;;
71395;SDS011;59888;55.814;37.132;2023-08-07T03:53:17;4.85;;;3.35;;
71395;SDS011;59888;55.814;37.132;2023-08-07T03:55:51;3.97;;;3.10;;
71395;SDS011;59888;55.814;37.132;2023-08-07T03:58:19;6.97;;;3.10;;
71395;SDS011;59888;55.814;37.132;2023-08-07T04:00:45;6.03;;;3.10;;
71395;SDS011;59888;55.814;37.132;2023-08-07T04:03:11;5.90;;;3.42;;
71395;SDS011;59888;55.814;37.132;2023-08-07T04:05:37;7.70;;;3.42;;
71395;SDS011;59888;55.814;37.132;2023-08-07T04:08:06;9.38;;;3.55;;
71395;SDS011;59888;55.814;37.132;2023-08-07T04:10:32;7.22;;;3.10;;
71395;SDS011;59888;55.814;37.132;2023-08-07T04:12:58;7.53;;;3.22;;
71395;SDS011;59888;55.814;37.132;2023-08-07T04:15:24;8.25;;;3.22;;
71395;SDS011;59888;55.814;37.132;2023-08-07T04:17:50;7.72;;;3.30;;
71395;SDS011;59888;55.814;37.132;2023-08-07T04:20:15;6.72;;;2.85;;
71395;SDS011;59888;55.814;37.132;2023-08-07T04:22:41;7.82;;;3.00;;
71395;SDS011;59888;55.814;37.132;2023-08-07T04:25:08;7.03;;;3.60;;
71395;SDS011;59888;55.814;37.132;2023-08-07T04:27:34;5.95;;;3.30;;
71395;SDS011;59888;55.814;37.132;2023-08-07T04:30:00;4.38;;;2.80;;
71395;SDS011;59888;55.814;37.132;2023-08-07T04:32:26;4.72;;;2.83;;
71395;SDS011;59888;55.814;37.132;2023-08-07T04:34:52;6.72;;;3.13;;
71395;SDS011;59888;55.814;37.132;2023-08-07T04:37:18;7.00;;;3.00;;
71395;SDS011;59888;55.814;37.132;2023-08-07T04:39:44;7.20;;;2.90;;
71395;SDS011;59888;55.814;37.132;2023-08-07T04:42:10;4.57;;;3.20;;
71395;SDS011;59888;55.814;37.132;2023-08-07T04:44:36;3.85;;;2.67;;
71395;SDS011;59888;55.814;37.132;2023-08-07T04:47:02;4.88;;;2.65;;
71395;SDS011;59888;55.814;37.132;2023-08-07T04:49:28;4.95;;;2.97;;
71395;SDS011;59888;55.814;37.132;2023-08-07T04:51:54;5.43;;;2.45;;
71395;SDS011;59888;55.814;37.132;2023-08-07T04:54:20;4.97;;;2.78;;
71395;SDS011;59888;55.814;37.132;2023-08-07T04:56:45;9.07;;;2.70;;
71395;SDS011;59888;55.814;37.132;2023-08-07T04:59:11;8.07;;;2.58;;
71395;SDS011;59888;55.814;37.132;2023-08-07T05:01:37;5.93;;;2.70;;
71395;SDS011;59888;55.814;37.132;2023-08-07T05:04:04;5.18;;;2.45;;
71395;SDS011;59888;55.814;37.132;2023-08-07T05:06:30;4.65;;;2.60;;
71395;SDS011;59888;55.814;37.132;2023-08-07T05:08:56;6.22;;;2.80;;
71395;SDS011;59888;55.814;37.132;2023-08-07T05:11:22;5.05;;;2.65;;
71395;SDS011;59888;55.814;37.132;2023-08-07T05:13:48;4.10;;;2.45;;
71395;SDS011;59888;55.814;37.132;2023-08-07T05:16:14;4.97;;;2.60;;
71395;SDS011;59888;55.814;37.132;2023-08-07T05:18:40;5.05;;;2.38;;
71395;SDS011;59888;55.814;37.132;2023-08-07T05:21:06;4.13;;;2.47;;
71395;SDS011;59888;55.814;37.132;2023-08-07T05:23:34;3.92;;;2.50;;
71395;SDS011;59888;55.814;37.132;2023-08-07T05:26:00;7.53;;;2.80;;
71395;SDS011;59888;55.814;37.132;2023-08-07T05:28:28;7.15;;;2.65;;
71395;SDS011;59888;55.814;37.132;2023-08-07T05:30:55;4.90;;;2.30;;
71395;SDS011;59888;55.814;37.132;2023-08-07T05:33:21;7.38;;;1.98;;
71395;SDS011;59888;55.814;37.132;2023-08-07T05:35:47;3.47;;;2.30;;
71395;SDS011;59888;55.814;37.132;2023-08-07T05:38:13;3.67;;;2.17;;
71395;SDS011;59888;55.814;37.132;2023-08-07T05:40:39;8.05;;;2.42;;
71395;SDS011;59888;55.814;37.132;2023-08-07T05:43:06;5.43;;;2.45;;
71395;SDS011;59888;55.814;37.132;2023-08-07T05:45:32;5.05;;;2.00;;
71395;SDS011;59888;55.814;37.132;2023-08-07T05:47:58;4.10;;;2.25;;
71395;SDS011;59888;55.814;37.132;2023-08-07T05:50:24;4.20;;;2.13;;
71395;SDS011;59888;55.814;37.132;2023-08-07T05:52:49;5.45;;;2.10;;
71395;SDS011;59888;55.814;37.132;2023-08-07T05:55:15;3.97;;;2.30;;
71395;SDS011;59888;55.814;37.132;2023-08-07T05:57:41;4.82;;;2.38;;
71395;SDS011;59888;55.814;37.132;2023-08-07T06:00:08;6.68;;;2.10;;
71395;SDS011;59888;55.814;37.132;2023-08-07T06:02:48;7.95;;;2.28;;
71395;SDS011;59888;55.814;37.132;2023-08-07T06:05:14;3.75;;;2.20;;
71395;SDS011;59888;55.814;37.132;2023-08-07T06:07:41;9.65;;;2.25;;
71395;SDS011;59888;55.814;37.132;2023-08-07T06:10:07;7.45;;;1.95;;
71395;SDS011;59888;55.814;37.132;2023-08-07T06:12:34;4.35;;;2.17;;
71395;SDS011;59888;55.814;37.132;2023-08-07T06:15:00;4.75;;;1.85;;
71395;SDS011;59888;55.814;37.132;2023-08-07T06:17:26;7.68;;;2.47;;
71395;SDS011;59888;55.814;37.132;2023-08-07T06:19:53;7.10;;;2.15;;
71395;SDS011;59888;55.814;37.132;2023-08-07T06:22:18;11.68;;;2.63;;
71395;SDS011;59888;55.814;37.132;2023-08-07T06:24:44;4.95;;;1.95;;
71395;SDS011;59888;55.814;37.132;2023-08-07T06:27:10;7.85;;;2.40;;
71395;SDS011;59888;55.814;37.132;2023-08-07T06:29:36;8.77;;;2.03;;
71395;SDS011;59888;55.814;37.132;2023-08-07T06:32:02;7.40;;;2.28;;
71395;SDS011;59888;55.814;37.132;2023-08-07T06:34:28;9.07;;;2.35;;
71395;SDS011;59888;55.814;37.132;2023-08-07T06:36:54;4.28;;;2.05;;
71395;SDS011;59888;55.814;37.132;2023-08-07T06:39:20;6.55;;;1.98;;
71395;SDS011;59888;55.814;37.132;2023-08-07T06:41:46;3.47;;;2.10;;
71395;SDS011;59888;55.814;37.132;2023-08-07T06:44:13;5.78;;;1.80;;
71395;SDS011;59888;55.814;37.132;2023-08-07T06:46:39;4.53;;;1.90;;
71395;SDS011;59888;55.814;37.132;2023-08-07T06:49:05;6.20;;;2.20;;
71395;SDS011;59888;55.814;37.132;2023-08-07T06:51:31;7.88;;;2.42;;
71395;SDS011;59888;55.814;37.132;2023-08-07T06:53:57;3.22;;;1.90;;
71395;SDS011;59888;55.814;37.132;2023-08-07T06:56:23;3.53;;;1.77;;
71395;SDS011;59888;55.814;37.132;2023-08-07T06:58:49;6.47;;;2.20;;
71395;SDS011;59888;55.814;37.132;2023-08-07T07:01:15;5.57;;;2.15;;
71395;SDS011;59888;55.814;37.132;2023-08-07T07:03:41;8.30;;;2.10;;
71395;SDS011;59888;55.814;37.132;2023-08-07T07:06:07;7.35;;;2.00;;
71395;SDS011;59888;55.814;37.132;2023-08-07T07:08:36;3.78;;;1.73;;
71395;SDS011;59888;55.814;37.132;2023-08-07T07:11:02;4.88;;;2.03;;
71395;SDS011;59888;55.814;37.132;2023-08-07T07:13:30;6.82;;;2.25;;
71395;SDS011;59888;55.814;37.132;2023-08-07T07:15:55;8.43;;;2.20;;
71395;SDS011;59888;55.814;37.132;2023-08-07T07:18:21;5.35;;;1.85;;
71395;SDS011;59888;55.814;37.132;2023-08-07T07:20:56;4.22;;;2.10;;
71395;SDS011;59888;55.814;37.132;2023-08-07T07:23:26;6.68;;;2.10;;
71395;SDS011;59888;55.814;37.132;2023-08-07T07:25:52;9.15;;;2.90;;
71395;SDS011;59888;55.814;37.132;2023-08-07T07:28:18;4.53;;;2.03;;
71395;SDS011;59888;55.814;37.132;2023-08-07T07:30:44;5.43;;;1.60;;
71395;SDS011;59888;55.814;37.132;2023-08-07T07:33:10;6.07;;;2.13;;
71395;SDS011;59888;55.814;37.132;2023-08-07T07:35:39;7.93;;;2.20;;
71395;SDS011;59888;55.814;37.132;2023-08-07T07:38:06;6.93;;;1.80;;
71395;SDS011;59888;55.814;37.132;2023-08-07T07:40:35;4.05;;;1.92;;
71395;SDS011;59888;55.814;37.132;2023-08-07T07:43:02;7.18;;;2.10;;
71395;SDS011;59888;55.814;37.132;2023-08-07T07:45:28;4.45;;;1.95;;
71395;SDS011;59888;55.814;37.132;2023-08-07T07:47:55;6.93;;;2.15;;
71395;SDS011;59888;55.814;37.132;2023-08-07T07:50:21;8.18;;;2.28;;
71395;SDS011;59888;55.814;37.132;2023-08-07T07:52:47;7.05;;;2.03;;
71395;SDS011;59888;55.814;37.132;2023-08-07T07:55:13;7.38;;;2.40;;
71395;SDS011;59888;55.814;37.132;2023-08-07T07:57:39;12.45;;;2.90;;
71395;SDS011;59888;55.814;37.132;2023-08-07T08:00:06;5.85;;;2.55;;
71395;SDS011;59888;55.814;37.132;2023-08-07T08:02:41;6.47;;;1.90;;
71395;SDS011;59888;55.814;37.132;2023-08-07T08:05:09;5.60;;;1.95;;
71395;SDS011;59888;55.814;37.132;2023-08-07T08:07:38;6.68;;;2.20;;
71395;SDS011;59888;55.814;37.132;2023-08-07T08:10:06;3.30;;;2.08;;
71395;SDS011;59888;55.814;37.132;2023-08-07T08:12:32;10.13;;;2.28;;
71395;SDS011;59888;55.814;37.132;2023-08-07T08:14:58;6.20;;;1.90;;
71395;SDS011;59888;55.814;37.132;2023-08-07T08:17:24;7.60;;;2.13;;
71395;SDS011;59888;55.814;37.132;2023-08-07T08:19:51;4.32;;;2.20;;
71395;SDS011;59888;55.814;37.132;2023-08-07T08:22:17;5.55;;;1.98;;
71395;SDS011;59888;55.814;37.132;2023-08-07T08:24:44;10.48;;;1.83;;
71395;SDS011;59888;55.814;37.132;2023-08-07T08:27:10;4.70;;;1.75;;
71395;SDS011;59888;55.814;37.132;2023-08-07T08:29:36;4.20;;;2.00;;
71395;SDS011;59888;55.814;37.132;2023-08-07T08:32:02;6.47;;;1.92;;
71395;SDS011;59888;55.814;37.132;2023-08-07T08:34:28;5.20;;;1.88;;
71395;SDS011;59888;55.814;37.132;2023-08-07T08:36:54;4.28;;;2.20;;
71395;SDS011;59888;55.814;37.132;2023-08-07T08:39:20;6.18;;;1.90;;
71395;SDS011;59888;55.814;37.132;2023-08-07T08:41:47;7.10;;;2.13;;
71395;SDS011;59888;55.814;37.132;2023-08-07T08:44:13;7.93;;;2.00;;
71395;SDS011;59888;55.814;37.132;2023-08-07T08:46:41;8.35;;;2.00;;
71395;SDS011;59888;55.814;37.132;2023-08-07T08:49:08;3.35;;;1.80;;
71395;SDS011;59888;55.814;37.132;2023-08-07T08:51:36;7.20;;;2.08;;
71395;SDS011;59888;55.814;37.132;2023-08-07T08:54:02;5.53;;;2.10;;
71395;SDS011;59888;55.814;37.132;2023-08-07T08:56:29;5.70;;;1.95;;
71395;SDS011;59888;55.814;37.132;2023-08-07T08:58:56;6.38;;;1.95;;
71395;SDS011;59888;55.814;37.132;2023-08-07T09:01:22;6.65;;;2.05;;
71395;SDS011;59888;55.814;37.132;2023-08-07T09:03:50;6.05;;;2.05;;
71395;SDS011;59888;55.814;37.132;2023-08-07T09:06:21;5.63;;;2.25;;
71395;SDS011;59888;55.814;37.132;2023-08-07T09:08:47;6.25;;;2.00;;
71395;SDS011;59888;55.814;37.132;2023-08-07T09:11:15;6.90;;;1.70;;
71395;SDS011;59888;55.814;37.132;2023-08-07T09:13:43;5.20;;;1.80;;
71395;SDS011;59888;55.814;37.132;2023-08-07T09:16:13;8.05;;;1.80;;
71395;SDS011;59888;55.814;37.132;2023-08-07T09:18:40;15.23;;;3.55;;
71395;SDS011;59888;55.814;37.132;2023-08-07T09:21:09;6.85;;;1.92;;
71395;SDS011;59888;55.814;37.132;2023-08-07T09:23:35;4.65;;;1.88;;
71395;SDS011;59888;55.814;37.132;2023-08-07T09:26:01;6.60;;;1.60;;
71395;SDS011;59888;55.814;37.132;2023-08-07T09:28:28;7.68;;;1.90;;
71395;SDS011;59888;55.814;37.132;2023-08-07T09:30:55;5.57;;;1.90;;
71395;SDS011;59888;55.814;37.132;2023-08-07T09:33:25;7.43;;;1.92;;
71395;SDS011;59888;55.814;37.132;2023-08-07T09:35:52;5.55;;;1.88;;
71395;SDS011;59888;55.814;37.132;2023-08-07T09:38:19;5.95;;;1.90;;
71395;SDS011;59888;55.814;37.132;2023-08-07T09:40:49;4.35;;;1.92;;
71395;SDS011;59888;55.814;37.132;2023-08-07T09:43:21;3.47;;;1.83;;
71395;SDS011;59888;55.814;37.132;2023-08-07T09:45:48;7.43;;;2.05;;
71395;SDS011;59888;55.814;37.132;2023-08-07T09:48:23;4.63;;;1.70;;
71395;SDS011;59888;55.814;37.132;2023-08-07T09:50:51;5.75;;;2.00;;
71395;SDS011;59888;55.814;37.132;2023-08-07T09:53:16;5.72;;;1.77;;
71395;SDS011;59888;55.814;37.132;2023-08-07T09:55:42;5.47;;;2.05;;
71395;SDS011;59888;55.814;37.132;2023-08-07T09:58:09;8.35;;;2.08;;
71395;SDS011;59888;55.814;37.132;2023-08-07T10:00:38;5.75;;;2.33;;
71395;SDS011;59888;55.814;37.132;2023-08-07T10:03:05;7.35;;;2.00;;
71395;SDS011;59888;55.814;37.132;2023-08-07T10:05:32;6.13;;;2.30;;
71395;SDS011;59888;55.814;37.132;2023-08-07T10:07:58;7.97;;;2.00;;
71395;SDS011;59888;55.814;37.132;2023-08-07T10:10:24;6.40;;;1.95;;
71395;SDS011;59888;55.814;37.132;2023-08-07T10:12:51;4.28;;;1.88;;
71395;SDS011;59888;55.814;37.132;2023-08-07T10:15:19;6.90;;;2.03;;
71395;SDS011;59888;55.814;37.132;2023-08-07T10:17:45;7.97;;;2.40;;
71395;SDS011;59888;55.814;37.132;2023-08-07T10:20:12;5.82;;;1.95;;
71395;SDS011;59888;55.814;37.132;2023-08-07T10:22:38;5.20;;;1.85;;
71395;SDS011;59888;55.814;37.132;2023-08-07T10:25:06;7.53;;;2.00;;
71395;SDS011;59888;55.814;37.132;2023-08-07T10:27:33;4.43;;;1.90;;
71395;SDS011;59888;55.814;37.132;2023-08-07T10:30:04;9.07;;;1.90;;
71395;SDS011;59888;55.814;37.132;2023-08-07T10:32:34;4.65;;;1.75;;
71395;SDS011;59888;55.814;37.132;2023-08-07T10:35:04;6.00;;;1.80;;
71395;SDS011;59888;55.814;37.132;2023-08-07T10:40:11;3.00;;;1.80;;
71395;SDS011;59888;55.814;37.132;2023-08-07T10:45:20;10.13;;;1.95;;
71395;SDS011;59888;55.814;37.132;2023-08-07T10:48:07;5.25;;;1.80;;
71395;SDS011;59888;55.814;37.132;2023-08-07T10:53:35;8.43;;;2.20;;
71395;SDS011;59888;55.814;37.132;2023-08-07T10:58:33;4.30;;;1.88;;
71395;SDS011;59888;55.814;37.132;2023-08-07T11:01:32;5.90;;;2.00;;
71395;SDS011;59888;55.814;37.132;2023-08-07T11:04:12;6.78;;;1.63;;
71395;SDS011;59888;55.814;37.132;2023-08-07T11:06:40;4.13;;;1.73;;
71395;SDS011;59888;55.814;37.132;2023-08-07T11:09:08;9.18;;;2.00;;
71395;SDS011;59888;55.814;37.132;2023-08-07T11:11:47;3.47;;;1.88;;
71395;SDS011;59888;55.814;37.132;2023-08-07T11:14:15;4.97;;;2.10;;
71395;SDS011;59888;55.814;37.132;2023-08-07T11:16:42;4.03;;;1.90;;
71395;SDS011;59888;55.814;37.132;2023-08-07T11:19:11;8.20;;;1.95;;
71395;SDS011;59888;55.814;37.132;2023-08-07T11:21:39;3.08;;;1.75;;
71395;SDS011;59888;55.814;37.132;2023-08-07T11:24:05;4.30;;;2.17;;
71395;SDS011;59888;55.814;37.132;2023-08-07T11:26:32;6.93;;;2.00;;
71395;SDS011;59888;55.814;37.132;2023-08-07T11:28:58;5.40;;;2.00;;
71395;SDS011;59888;55.814;37.132;2023-08-07T11:31:25;5.93;;;1.90;;
71395;SDS011;59888;55.814;37.132;2023-08-07T11:33:51;4.00;;;1.80;;
71395;SDS011;59888;55.814;37.132;2023-08-07T11:36:19;6.53;;;1.90;;
71395;SDS011;59888;55.814;37.132;2023-08-07T11:38:45;4.72;;;2.00;;
71395;SDS011;59888;55.814;37.132;2023-08-07T11:41:12;5.82;;;2.00;;
71395;SDS011;59888;55.814;37.132;2023-08-07T11:43:39;6.47;;;1.90;;
71395;SDS011;59888;55.814;37.132;2023-08-07T11:46:07;6.63;;;1.80;;
71395;SDS011;59888;55.814;37.132;2023-08-07T11:48:35;6.15;;;2.20;;
71395;SDS011;59888;55.814;37.132;2023-08-07T11:51:03;6.35;;;1.90;;
71395;SDS011;59888;55.814;37.132;2023-08-07T11:53:30;4.90;;;2.10;;
71395;SDS011;59888;55.814;37.132;2023-08-07T11:58:26;4.55;;;2.10;;
71395;SDS011;59888;55.814;37.132;2023-08-07T12:00:53;3.38;;;1.90;;
71395;SDS011;59888;55.814;37.132;2023-08-07T12:03:24;7.75;;;2.30;;
71395;SDS011;59888;55.814;37.132;2023-08-07T12:05:55;4.15;;;2.15;;
71395;SDS011;59888;55.814;37.132;2023-08-07T12:08:22;3.28;;;2.08;;
71395;SDS011;59888;55.814;37.132;2023-08-07T12:10:54;7.30;;;2.38;;
71395;SDS011;59888;55.814;37.132;2023-08-07T12:13:23;5.55;;;2.00;;
71395;SDS011;59888;55.814;37.132;2023-08-07T12:15:51;6.05;;;2.00;;
71395;SDS011;59888;55.814;37.132;2023-08-07T12:18:19;3.63;;;2.15;;
71395;SDS011;59888;55.814;37.132;2023-08-07T12:20:50;5.90;;;2.17;;
71395;SDS011;59888;55.814;37.132;2023-08-07T12:23:17;6.05;;;2.30;;
71395;SDS011;59888;55.814;37.132;2023-08-07T12:25:45;5.00;;;2.35;;
71395;SDS011;59888;55.814;37.132;2023-08-07T12:28:11;4.25;;;2.40;;
71395;SDS011;59888;55.814;37.132;2023-08-07T12:30:37;3.95;;;2.38;;
71395;SDS011;59888;55.814;37.132;2023-08-07T12:33:04;4.97;;;2.17;;
71395;SDS011;59888;55.814;37.132;2023-08-07T12:35:31;5.72;;;2.13;;
71395;SDS011;59888;55.814;37.132;2023-08-07T12:37:57;6.78;;;2.53;;
71395;SDS011;59888;55.814;37.132;2023-08-07T12:40:23;7.97;;;2.47;;
71395;SDS011;59888;55.814;37.132;2023-08-07T12:42:50;6.22;;;2.30;;
71395;SDS011;59888;55.814;37.132;2023-08-07T12:45:16;4.22;;;2.15;;
71395;SDS011;59888;55.814;37.132;2023-08-07T12:47:45;4.85;;;2.20;;
71395;SDS011;59888;55.814;37.132;2023-08-07T12:50:11;5.25;;;2.20;;
71395;SDS011;59888;55.814;37.132;2023-08-07T12:52:37;9.73;;;2.53;;
71395;SDS011;59888;55.814;37.132;2023-08-07T12:55:03;6.53;;;2.40;;
71395;SDS011;59888;55.814;37.132;2023-08-07T12:57:31;5.18;;;2.70;;
71395;SDS011;59888;55.814;37.132;2023-08-07T12:59:57;5.72;;;2.13;;
71395;SDS011;59888;55.814;37.132;2023-08-07T13:02:23;5.75;;;2.42;;
71395;SDS011;59888;55.814;37.132;2023-08-07T13:04:49;8.10;;;2.38;;
71395;SDS011;59888;55.814;37.132;2023-08-07T13:07:17;10.02;;;2.30;;
71395;SDS011;59888;55.814;37.132;2023-08-07T13:09:43;4.97;;;2.33;;
71395;SDS011;59888;55.814;37.132;2023-08-07T13:12:09;4.30;;;2.13;;
71395;SDS011;59888;55.814;37.132;2023-08-07T13:14:35;5.45;;;2.38;;
71395;SDS011;59888;55.814;37.132;2023-08-07T13:17:05;4.45;;;2.13;;
71395;SDS011;59888;55.814;37.132;2023-08-07T13:19:31;3.50;;;2.00;;
71395;SDS011;59888;55.814;37.132;2023-08-07T13:21:57;5.95;;;2.13;;
71395;SDS011;59888;55.814;37.132;2023-08-07T13:24:23;6.18;;;2.00;;
71395;SDS011;59888;55.814;37.132;2023-08-07T13:26:49;3.80;;;2.30;;
71395;SDS011;59888;55.814;37.132;2023-08-07T13:29:15;6.47;;;1.80;;
71395;SDS011;59888;55.814;37.132;2023-08-07T13:31:41;4.03;;;2.05;;
71395;SDS011;59888;55.814;37.132;2023-08-07T13:34:09;3.67;;;2.03;;
71395;SDS011;59888;55.814;37.132;2023-08-07T13:36:36;3.90;;;2.00;;
71395;SDS011;59888;55.814;37.132;2023-08-07T13:39:06;6.07;;;2.00;;
71395;SDS011;59888;55.814;37.132;2023-08-07T13:41:32;9.60;;;2.08;;
71395;SDS011;59888;55.814;37.132;2023-08-07T13:43:58;9.02;;;1.90;;
71395;SDS011;59888;55.814;37.132;2023-08-07T13:46:25;4.72;;;1.80;;
71395;SDS011;59888;55.814;37.132;2023-08-07T13:48:51;5.97;;;2.20;;
71395;SDS011;59888;55.814;37.132;2023-08-07T13:51:17;3.40;;;1.90;;
71395;SDS011;59888;55.814;37.132;2023-08-07T13:53:45;3.58;;;1.95;;
71395;SDS011;59888;55.814;37.132;2023-08-07T13:56:11;5.15;;;1.85;;
71395;SDS011;59888;55.814;37.132;2023-08-07T13:58:38;4.45;;;2.20;;
71395;SDS011;59888;55.814;37.132;2023-08-07T14:01:05;3.00;;;1.90;;
71395;SDS011;59888;55.814;37.132;2023-08-07T14:03:31;4.38;;;1.73;;
71395;SDS011;59888;55.814;37.132;2023-08-07T14:05:58;6.15;;;1.90;;
71395;SDS011;59888;55.814;37.132;2023-08-07T14:08:24;4.97;;;1.88;;
71395;SDS011;59888;55.814;37.132;2023-08-07T14:10:50;3.50;;;1.73;;
71395;SDS011;59888;55.814;37.132;2023-08-07T14:13:16;5.13;;;1.88;;
71395;SDS011;59888;55.814;37.132;2023-08-07T14:15:42;4.55;;;2.00;;
71395;SDS011;59888;55.814;37.132;2023-08-07T14:18:08;4.07;;;1.90;;
71395;SDS011;59888;55.814;37.132;2023-08-07T14:20:36;5.13;;;2.22;;
71395;SDS011;59888;55.814;37.132;2023-08-07T14:23:02;4.82;;;1.90;;
71395;SDS011;59888;55.814;37.132;2023-08-07T14:25:28;6.20;;;1.85;;
71395;SDS011;59888;55.814;37.132;2023-08-07T14:27:55;6.03;;;2.03;;
71395;SDS011;59888;55.814;37.132;2023-08-07T14:30:21;4.53;;;1.90;;
71395;SDS011;59888;55.814;37.132;2023-08-07T14:32:48;3.78;;;2.35;;
71395;SDS011;59888;55.814;37.132;2023-08-07T14:35:14;3.65;;;1.90;;
71395;SDS011;59888;55.814;37.132;2023-08-07T14:37:41;4.72;;;2.20;;
71395;SDS011;59888;55.814;37.132;2023-08-07T14:40:07;3.55;;;2.08;;
71395;SDS011;59888;55.814;37.132;2023-08-07T14:42:33;5.30;;;2.10;;
71395;SDS011;59888;55.814;37.132;2023-08-07T14:45:00;9.75;;;2.20;;
71395;SDS011;59888;55.814;37.132;2023-08-07T14:47:26;4.13;;;1.92;;